Trier Petrisberg, Germany

5:30 PM CET on February 12, 2016 (GMT +0100)
Luxembourg | | Change Station
CLOSE
Current Station
Airport
Location: Luxembourg,
Elevation: 1234 ft
Nearby Weather Stations

Elev 1234 ft 49.63 °N, 6.20 °E | Updated 10 minutes ago

Scattered Clouds
Scattered Clouds
37 °F
Feels Like 31 °F
N
8
Wind Variable Wind from East

Today
High -- | Low -- °F
--% Chance of Precip.
Yesterday
High -- | Low -- °F
Precip. -- in
Pressure 29.33 in
Visibility 6.2 miles
Clouds Few 2200 ft
Scattered Clouds 3600 ft
Windchill 31 °F
Dew Point 30 °F
Humidity 75%
Rainfall 0.00 in
Snow Depth Not available.
7:49 AM 5:46 PM
Waxing Crescent, 21% visible
METAR ELLX 121620Z 09007KT 060V130 9999 FEW022 SCT036 03/M01 Q0993 NOSIG
Pressure 29.33 in
Visibility 6.2 miles
Clouds Few 2200 ft
Scattered Clouds 3600 ft
Windchill 31 °F
Dew Point 30 °F
Humidity 75%
Rainfall 0.00 in
Snow Depth Not available.
7:49 AM 5:46 PM
Waxing Crescent, 21% visible
METAR ELLX 121620Z 09007KT 060V130 9999 FEW022 SCT036 03/M01 Q0993 NOSIG

10-Day Weather Forecast

Almanac

Astronomy

Feb. 12, 2016 Rise Set
Actual Time
Civil Twilight
Nautical Twilight
Astronomical Twilight
Moon
Length of Visible Light
Length of Day
Tomorrow will be .
, % of the Moon is Illuminated

Today's Extremes

Country Highs Country Lows

Community

WunderPhotos

Upload Photos

1,892,350 photos uploaded!

WunderBlog® & News

Nearby

Air Quality

  Air Quality AQ Index Pollutant
Not available.

Snow Depth

Station Depth Elevation

Earthquake Activity

City Distance Mag. Time & Date
Minimum magnitude displayed is 2.5.

Coastal Water Temperatures

Place Temperature

Stations

Nearby Weather Stations

Station Location Temp. Windchill Dew Point Humidity Wind Precip. Elev Updated Type